Doug C. — WTX4517 — position and weather

sailwx.info

Track history (hours):
 
Tides and Currents Weather Stations Pressure Air Temp Water Temp Dewpoint Dewpoint Depression Visibility Wind Speed Wind Dir Waves Ship Positions

Doug C.

Owner: C & C BOATS INC, HUNTINGTON BEACH, CA. More information available from US FCC via Universal Licensing System and Coast Guard Vessel Documentation Center.

Last reported at 2018-Aug-14 13:27 UTC. Time now 2018-Aug-14 13:44 UTC.
Position N 34°26' W 119°55'.

Length 22 m.

Type: Passenger vessel. MMSI: 367090830.

Date/timePositionNaut miles runAvg speedWind from/ knotsBaromVisibWave heightAir tempDewpointWater temp
2018-Aug-14 13:27N 34°26' W 119°55'1 3.2
2018-Aug-14 13:00N 34°24' W 119°56'1 0.9
2018-Aug-14 11:31N 34°26' W 119°55'0 0.0
2018-Aug-14 10:28N 34°26' W 119°55'0 0.0
2018-Aug-14 08:12N 34°26' W 119°55'0 0.0
2018-Aug-14 07:54N 34°26' W 119°55'0 0.0
2018-Aug-14 04:40N 34°26' W 119°55'0 0.0
2018-Aug-14 04:25N 34°26' W 119°55'0 0.0
2018-Aug-14 03:58N 34°26' W 119°55'0 0.0
2018-Aug-14 02:44N 34°26' W 119°55'0 0.0
2018-Aug-14 00:59N 34°26' W 119°55'2 4.7
2018-Aug-14 00:30N 34°23' W 119°54'1 2.2
2018-Aug-13 23:59N 34°24' W 119°55'1 1.5
2018-Aug-13 23:16N 34°23' W 119°55'0 0.0
2018-Aug-13 22:52N 34°23' W 119°55'0 0.0
2018-Aug-13 22:22N 34°23' W 119°55'0 0.0
2018-Aug-13 21:52N 34°23' W 119°55'0 0.0
2018-Aug-13 21:07N 34°23' W 119°55'0 0.7
2018-Aug-13 20:54N 34°23' W 119°54'2 5.1
2018-Aug-13 20:27N 34°26' W 119°55'0 0.0
2018-Aug-13 19:51N 34°26' W 119°55'0 0.0
2018-Aug-13 19:30N 34°26' W 119°55'0 0.0
2018-Aug-13 18:56N 34°26' W 119°55'0 0.6
2018-Aug-13 18:29N 34°26' W 119°55'3 5.3
2018-Aug-13 18:00N 34°23' W 119°54'3 3.9
2018-Aug-13 17:21N 34°26' W 119°55'0 0.3
2018-Aug-13 17:00N 34°26' W 119°55'0 0.2
2018-Aug-13 16:26N 34°26' W 119°55'0 0.1
2018-Aug-13 15:46N 34°26' W 119°55'1 1.6
2018-Aug-13 15:24N 34°25' W 119°56'1 1.6
2018-Aug-13 15:00N 34°26' W 119°55'0 0.3
2018-Aug-13 13:55N 34°26' W 119°55'0 0.8
2018-Aug-13 13:30N 34°26' W 119°55'0 0.7
2018-Aug-13 12:57N 34°25' W 119°55'0 0.4
2018-Aug-13 12:30N 34°26' W 119°55'0 0.0
2018-Aug-13 09:30N 34°26' W 119°55'0 0.0
2018-Aug-13 08:51N 34°26' W 119°55'0 0.0
2018-Aug-13 07:06N 34°26' W 119°55'0 0.0
2018-Aug-13 05:42N 34°26' W 119°55'0 0.0
2018-Aug-13 05:30N 34°26' W 119°55'0 0.0
2018-Aug-13 04:15N 34°26' W 119°55'0 0.0
2018-Aug-13 03:48N 34°26' W 119°55'0 0.0
2018-Aug-13 03:09N 34°26' W 119°55'0 0.0
2018-Aug-13 02:51N 34°26' W 119°55'0 0.0
2018-Aug-13 00:50N 34°26' W 119°55'1 3.8
2018-Aug-13 00:30N 34°24' W 119°55'1 1.7
2018-Aug-12 23:47N 34°26' W 119°55'0 0.0
2018-Aug-12 23:11N 34°26' W 119°55'0 0.2
2018-Aug-12 22:52N 34°26' W 119°55'0 0.0
2018-Aug-12 22:29N 34°26' W 119°55'2 3.3
2018-Aug-12 21:56N 34°24' W 119°55'2 4.1
2018-Aug-12 21:29N 34°26' W 119°55'0 0.0
2018-Aug-12 21:00N 34°26' W 119°55'0 0.0
2018-Aug-12 20:21N 34°26' W 119°55'0 0.0
2018-Aug-12 19:30N 34°26' W 119°55'0 0.0
2018-Aug-12 19:00N 34°26' W 119°55'0 0.0
2018-Aug-12 18:30N 34°26' W 119°55'0 0.0
2018-Aug-12 17:45N 34°26' W 119°55'0 0.0
2018-Aug-12 17:18N 34°26' W 119°55'0 0.0
2018-Aug-12 16:37N 34°26' W 119°55'0 0.0
2018-Aug-12 16:28N 34°26' W 119°55'0 0.0
2018-Aug-12 14:40N 34°26' W 119°55'0 0.0
2018-Aug-12 13:34N 34°26' W 119°55'0 0.0
2018-Aug-12 13:23N 34°26' W 119°55'2 5.7
2018-Aug-12 12:59N 34°23' W 119°54'2 1.3
2018-Aug-12 11:15N 34°26' W 119°55'0 0.0
2018-Aug-12 10:18N 34°26' W 119°55'0 0.0
2018-Aug-12 10:00N 34°26' W 119°55'0 0.0
2018-Aug-12 09:30N 34°26' W 119°55'0 0.0
2018-Aug-12 09:00N 34°26' W 119°55'0 0.0
2018-Aug-12 08:29N 34°26' W 119°55'0 0.0
2018-Aug-12 07:59N 34°26' W 119°55'0 0.0
2018-Aug-12 07:29N 34°26' W 119°55'0 0.0
2018-Aug-12 06:58N 34°26' W 119°55'0 0.0
2018-Aug-12 06:28N 34°26' W 119°55'0 0.0
2018-Aug-12 05:58N 34°26' W 119°55'0 0.0
2018-Aug-12 05:25N 34°26' W 119°55'0 0.0
2018-Aug-12 04:55N 34°26' W 119°55'0 0.0
2018-Aug-12 04:19N 34°26' W 119°55'0 0.0
2018-Aug-12 03:52N 34°26' W 119°55'0 0.0
2018-Aug-12 03:22N 34°26' W 119°55'0 0.0
2018-Aug-12 03:00N 34°26' W 119°55'0 0.0
2018-Aug-12 02:30N 34°26' W 119°55'0 0.0
2018-Aug-12 02:00N 34°26' W 119°55'0 0.0
2018-Aug-12 01:23N 34°26' W 119°55'2 4.2
2018-Aug-12 00:53N 34°24' W 119°55'2 5.8
2018-Aug-12 00:29N 34°26' W 119°55'2 3.4
2018-Aug-12 00:00N 34°24' W 119°56'1 2.1
2018-Aug-11 23:19N 34°26' W 119°55'0 0.0
2018-Aug-11 22:51N 34°26' W 119°55'0 0.0
2018-Aug-11 22:15N 34°26' W 119°55'0 0.0
2018-Aug-11 21:48N 34°26' W 119°55'0 1.1
2018-Aug-11 21:30N 34°25' W 119°56'2 2.3
2018-Aug-11 20:34N 34°23' W 119°55'0 0.0
2018-Aug-11 20:19N 34°23' W 119°55'0 1.1
2018-Aug-11 20:00N 34°24' W 119°55'2 1.7
2018-Aug-11 18:52N 34°26' W 119°55'0 0.0
2018-Aug-11 17:14N 34°26' W 119°55'0 0.0
2018-Aug-11 16:59N 34°26' W 119°55'0 0.0
2018-Aug-11 16:02N 34°26' W 119°55'0 0.1
2018-Aug-11 15:56N 34°26' W 119°55'0 0.0
2018-Aug-11 13:41N 34°26' W 119°55'0 0.0
2018-Aug-11 13:22N 34°26' W 119°55'2 5.3
2018-Aug-11 12:56N 34°23' W 119°54'2 1.7
2018-Aug-11 11:34N 34°26' W 119°55'0 0.0
2018-Aug-11 11:28N 34°26' W 119°55'0 0.0
2018-Aug-11 09:34N 34°26' W 119°55'0 0.0
2018-Aug-11 08:34N 34°26' W 119°55'0 0.0
2018-Aug-11 08:28N 34°26' W 119°55'0 0.0
2018-Aug-11 06:58N 34°26' W 119°55'0 0.0
2018-Aug-11 06:28N 34°26' W 119°55'0 0.0
2018-Aug-11 05:58N 34°26' W 119°55'0 0.0
2018-Aug-11 05:28N 34°26' W 119°55'0 0.0
2018-Aug-11 03:19N 34°26' W 119°55'0 0.0
2018-Aug-11 02:58N 34°26' W 119°55'0 0.0
2018-Aug-11 02:13N 34°26' W 119°55'0 0.0
2018-Aug-11 01:43N 34°26' W 119°55'1 2.0
2018-Aug-11 01:26N 34°25' W 119°56'1 1.7
2018-Aug-11 01:00N 34°26' W 119°55'0 0.2
2018-Aug-11 00:07N 34°26' W 119°55'0 1.7
2018-Aug-11 00:00N 34°26' W 119°55'0 0.2
2018-Aug-10 23:23N 34°26' W 119°55'0 0.0
2018-Aug-10 22:54N 34°26' W 119°55'2 4.3
2018-Aug-10 22:30N 34°24' W 119°55'2 2.7
2018-Aug-10 21:51N 34°26' W 119°55'0 0.0
2018-Aug-10 21:27N 34°26' W 119°55'2 3.4
2018-Aug-10 21:00N 34°24' W 119°55'2 2.5
2018-Aug-10 20:23N 34°26' W 119°55'0 0.0
2018-Aug-10 19:26N 34°26' W 119°55'0 0.0
2018-Aug-10 18:59N 34°26' W 119°55'0 0.0
2018-Aug-10 18:26N 34°26' W 119°55'0 0.0
2018-Aug-10 17:59N 34°26' W 119°55'0 0.3
2018-Aug-10 17:17N 34°26' W 119°55'1 3.2
2018-Aug-10 16:56N 34°25' W 119°56'1 1.6
2018-Aug-10 16:20N 34°26' W 119°55'0 0.0
2018-Aug-10 15:53N 34°26' W 119°55'0 0.4
2018-Aug-10 15:19N 34°26' W 119°55'3 7.7
2018-Aug-10 14:59N 34°23' W 119°54'2 2.9
2018-Aug-10 14:11N 34°26' W 119°55'0 0.6
2018-Aug-10 13:43N 34°26' W 119°55'1 5.0
2018-Aug-10 13:26N 34°24' W 119°56'1 3.0
2018-Aug-10 13:00N 34°26' W 119°55'0 0.1
2018-Aug-10 10:52N 34°26' W 119°55'0 0.0
2018-Aug-10 10:00N 34°26' W 119°55'0 0.0
2018-Aug-10 09:18N 34°26' W 119°55'0 0.0
2018-Aug-10 07:09N 34°26' W 119°55'0 0.0
2018-Aug-10 07:00N 34°26' W 119°55'0 0.0
2018-Aug-10 04:27N 34°26' W 119°55'1 3.1
2018-Aug-10 03:59N 34°24' W 119°55'1 2.5
2018-Aug-10 03:24N 34°26' W 119°55'0 0.0
2018-Aug-10 02:36N 34°26' W 119°55'0 0.0
2018-Aug-10 02:24N 34°26' W 119°55'0 0.0
2018-Aug-10 02:00N 34°26' W 119°55'0 0.0
2018-Aug-10 01:23N 34°26' W 119°55'2 4.6
2018-Aug-10 00:54N 34°23' W 119°54'2 5.1
2018-Aug-10 00:28N 34°26' W 119°55'0 0.0
2018-Aug-09 23:58N 34°26' W 119°55'2 4.3
2018-Aug-09 23:26N 34°23' W 119°54'2 2.6
2018-Aug-09 22:33N 34°26' W 119°55'0 0.0
2018-Aug-09 22:27N 34°26' W 119°55'0 0.0
2018-Aug-09 21:54N 34°26' W 119°55'2 5.7
2018-Aug-09 21:30N 34°23' W 119°54'3 3.8
2018-Aug-09 20:50N 34°26' W 119°55'0 0.0
2018-Aug-09 20:21N 34°26' W 119°55'0 0.6
2018-Aug-09 20:00N 34°26' W 119°55'2 4.5
2018-Aug-09 19:28N 34°23' W 119°54'0 0.1
2018-Aug-09 18:58N 34°23' W 119°54'2 3.2
2018-Aug-09 18:14N 34°26' W 119°55'0 0.0
2018-Aug-09 17:59N 34°26' W 119°55'0 0.0
2018-Aug-09 17:29N 34°26' W 119°55'0 0.4
2018-Aug-09 16:59N 34°26' W 119°55'2 3.2
2018-Aug-09 16:30N 34°24' W 119°56'1 1.8
2018-Aug-09 15:46N 34°23' W 119°55'0 0.1
2018-Aug-09 14:55N 34°23' W 119°55'2 6.2
2018-Aug-09 14:31N 34°26' W 119°55'0 0.2
2018-Aug-09 13:25N 34°26' W 119°55'2 5.6
2018-Aug-09 13:00N 34°23' W 119°54'2 4.2
2018-Aug-09 12:28N 34°26' W 119°55'0 0.0
2018-Aug-09 11:52N 34°26' W 119°55'0 0.0
2018-Aug-09 11:25N 34°26' W 119°55'0 0.0
2018-Aug-09 10:55N 34°26' W 119°55'0 0.0
2018-Aug-09 09:58N 34°26' W 119°55'0 0.0
2018-Aug-09 09:28N 34°26' W 119°55'0 0.0
2018-Aug-09 08:43N 34°26' W 119°55'0 0.0
2018-Aug-09 08:16N 34°26' W 119°55'0 0.0
2018-Aug-09 07:52N 34°26' W 119°55'0 0.0
2018-Aug-09 06:16N 34°26' W 119°55'0 0.0
2018-Aug-09 05:13N 34°26' W 119°55'0 0.0
2018-Aug-09 04:58N 34°26' W 119°55'0 0.0
2018-Aug-09 04:18N 34°26' W 119°55'0 0.0
2018-Aug-09 03:57N 34°26' W 119°55'0 0.0
2018-Aug-09 01:43N 34°26' W 119°55'0 0.0
2018-Aug-09 01:26N 34°26' W 119°55'2 4.0
2018-Aug-09 00:57N 34°24' W 119°55'2 1.6
2018-Aug-08 23:47N 34°26' W 119°55'0 0.0
2018-Aug-08 23:09N 34°26' W 119°55'0 0.0
2018-Aug-08 22:45N 34°26' W 119°55'0 0.0
2018-Aug-08 22:27N 34°26' W 119°55'0 0.6
2018-Aug-08 21:58N 34°26' W 119°55'0 0.4
2018-Aug-08 21:29N 34°26' W 119°55'3 5.0
2018-Aug-08 20:59N 34°23' W 119°54'0 0.0
2018-Aug-08 20:28N 34°23' W 119°54'1 2.6
2018-Aug-08 19:59N 34°24' W 119°56'1 2.9
2018-Aug-08 19:30N 34°26' W 119°55'0 0.0
2018-Aug-08 19:00N 34°26' W 119°55'0 0.0
2018-Aug-08 18:24N 34°26' W 119°55'0 0.0
2018-Aug-08 17:35N 34°26' W 119°55'0 0.0
2018-Aug-08 17:26N 34°26' W 119°55'0 0.0
2018-Aug-08 16:59N 34°26' W 119°55'2 3.6
2018-Aug-08 16:27N 34°24' W 119°55'2 3.2
2018-Aug-08 15:52N 34°26' W 119°55'0 0.0
2018-Aug-08 15:28N 34°26' W 119°55'0 0.0
2018-Aug-08 14:34N 34°26' W 119°55'0 0.0
2018-Aug-08 14:25N 34°26' W 119°55'0 0.0
2018-Aug-08 13:55N 34°26' W 119°55'0 0.6
2018-Aug-08 13:28N 34°26' W 119°55'1 2.6
2018-Aug-08 12:56N 34°24' W 119°56'1 2.5
2018-Aug-08 12:27N 34°26' W 119°55'0 0.0
2018-Aug-08 11:30N 34°26' W 119°55'0 0.0
2018-Aug-08 10:53N 34°26' W 119°55'0 0.0
2018-Aug-08 09:40N 34°26' W 119°55'0 0.0
2018-Aug-08 09:25N 34°26' W 119°55'0 0.0
2018-Aug-08 08:44N 34°26' W 119°55'0 0.0
2018-Aug-08 08:29N 34°26' W 119°55'0 0.0
2018-Aug-08 06:59N 34°26' W 119°55'0 0.0
2018-Aug-08 06:29N 34°26' W 119°55'0 0.0
2018-Aug-08 05:53N 34°26' W 119°55'0 0.0
2018-Aug-08 05:26N 34°26' W 119°55'0 0.0
2018-Aug-08 04:53N 34°26' W 119°55'0 0.0
2018-Aug-08 04:20N 34°26' W 119°55'0 0.0
2018-Aug-08 03:53N 34°26' W 119°55'0 0.0
2018-Aug-08 03:11N 34°26' W 119°55'0 0.0
2018-Aug-08 02:56N 34°26' W 119°55'0 0.0
2018-Aug-08 02:20N 34°26' W 119°55'0 0.0
2018-Aug-08 01:53N 34°26' W 119°55'0 0.7
2018-Aug-08 01:30N 34°26' W 119°55'1 1.7
2018-Aug-08 00:59N 34°25' W 119°56'1 0.7
2018-Aug-07 23:59N 34°26' W 119°55'0 0.0
2018-Aug-07 22:47N 34°26' W 119°55'2 6.7
2018-Aug-07 22:29N 34°24' W 119°55'2 2.7
2018-Aug-07 21:44N 34°26' W 119°55'0 0.0
2018-Aug-07 21:29N 34°26' W 119°55'0 0.7
2018-Aug-07 21:00N 34°25' W 119°56'2 2.9
2018-Aug-07 20:20N 34°23' W 119°55'0 0.0
2018-Aug-07 19:47N 34°23' W 119°55'0 0.0
2018-Aug-07 19:30N 34°23' W 119°55'0 0.0
2018-Aug-07 19:00N 34°23' W 119°55'0 0.0
2018-Aug-07 18:10N 34°23' W 119°55'0 0.0
2018-Aug-07 17:58N 34°23' W 119°55'0 0.0
2018-Aug-07 17:13N 34°23' W 119°55'0 0.0
2018-Aug-07 16:44N 34°23' W 119°55'0 0.0
2018-Aug-07 16:30N 34°23' W 119°55'0 0.0
2018-Aug-07 15:57N 34°23' W 119°55'0 0.0
2018-Aug-07 15:18N 34°23' W 119°55'0 0.0
2018-Aug-07 14:48N 34°23' W 119°55'0 0.0
2018-Aug-07 14:03N 34°23' W 119°55'0 0.0
2018-Aug-07 13:50N 34°23' W 119°55'2 6.2
2018-Aug-07 13:28N 34°26' W 119°55'0 0.1
2018-Aug-07 12:55N 34°26' W 119°55'0 0.2
2018-Aug-07 12:28N 34°26' W 119°55'0 0.2
2018-Aug-07 11:14N 34°26' W 119°55'0 0.0
2018-Aug-07 10:50N 34°26' W 119°55'0 0.0
2018-Aug-07 09:44N 34°26' W 119°55'0 0.0
2018-Aug-07 09:29N 34°26' W 119°55'0 0.0
2018-Aug-07 08:50N 34°26' W 119°55'0 0.0
2018-Aug-07 08:20N 34°26' W 119°55'0 0.0
2018-Aug-07 07:56N 34°26' W 119°55'0 0.0
2018-Aug-07 06:59N 34°26' W 119°55'0 0.0
2018-Aug-07 06:08N 34°26' W 119°55'0 0.0
2018-Aug-07 05:56N 34°26' W 119°55'0 0.0
2018-Aug-07 03:11N 34°26' W 119°55'0 0.0
2018-Aug-07 02:59N 34°26' W 119°55'0 0.0
2018-Aug-07 02:17N 34°26' W 119°55'0 0.0
2018-Aug-07 01:53N 34°26' W 119°55'0 0.1
2018-Aug-07 01:30N 34°26' W 119°55'2 3.9
2018-Aug-07 00:54N 34°23' W 119°54'3 5.2
2018-Aug-07 00:25N 34°26' W 119°55'0 0.4
2018-Aug-06 23:51N 34°26' W 119°55'0 0.0
2018-Aug-06 23:04N 34°26' W 119°55'0 0.0
2018-Aug-06 22:58N 34°26' W 119°55'0 0.0
2018-Aug-06 22:25N 34°26' W 119°55'1 2.0
2018-Aug-06 22:00N 34°25' W 119°56'1 1.6
2018-Aug-06 21:29N 34°26' W 119°55'2 4.6
2018-Aug-06 21:00N 34°23' W 119°54'0 0.4
2018-Aug-06 20:31N 34°23' W 119°55'0 0.0
2018-Aug-06 19:54N 34°23' W 119°55'0 0.4
2018-Aug-06 19:29N 34°23' W 119°54'3 5.0
2018-Aug-06 18:59N 34°26' W 119°55'0 0.0
2018-Aug-06 18:30N 34°26' W 119°55'3 4.2
2018-Aug-06 17:54N 34°23' W 119°54'0 0.0
2018-Aug-06 17:21N 34°23' W 119°54'0 0.1
2018-Aug-06 17:00N 34°23' W 119°54'3 5.1
2018-Aug-06 16:30N 34°26' W 119°55'0 0.4
2018-Aug-06 15:49N 34°26' W 119°55'0 0.0
2018-Aug-06 15:28N 34°26' W 119°55'0 0.0
2018-Aug-06 14:55N 34°26' W 119°55'0 0.0
2018-Aug-06 14:28N 34°26' W 119°55'0 0.0
2018-Aug-06 13:43N 34°26' W 119°55'0 0.0
2018-Aug-06 13:29N 34°26' W 119°55'2 3.3
2018-Aug-06 12:58N 34°24' W 119°55'2 3.3
2018-Aug-06 12:26N 34°26' W 119°55'0 0.0
2018-Aug-06 11:53N 34°26' W 119°55'0 0.0
2018-Aug-06 11:29N 34°26' W 119°55'0 0.0
2018-Aug-06 10:58N 34°26' W 119°55'0 0.0
2018-Aug-06 09:44N 34°26' W 119°55'0 0.0
2018-Aug-06 09:17N 34°26' W 119°55'0 0.0
2018-Aug-06 08:59N 34°26' W 119°55'0 0.0
2018-Aug-06 06:32N 34°26' W 119°55'0 0.0
2018-Aug-06 06:29N 34°26' W 119°55'0 0.0
2018-Aug-06 05:41N 34°26' W 119°55'0 0.0
2018-Aug-06 05:28N 34°26' W 119°55'0 0.0
2018-Aug-06 04:58N 34°26' W 119°55'0 0.0
2018-Aug-06 04:10N 34°26' W 119°55'0 0.0
2018-Aug-06 03:58N 34°26' W 119°55'0 0.0
2018-Aug-06 03:28N 34°26' W 119°55'0 0.0
2018-Aug-06 02:55N 34°26' W 119°55'0 0.0
2018-Aug-06 01:02N 34°26' W 119°55'0 0.0
2018-Aug-06 00:55N 34°26' W 119°55'2 5.1
2018-Aug-06 00:28N 34°23' W 119°54'2 3.0
2018-Aug-05 23:42N 34°26' W 119°55'0 0.0
2018-Aug-05 23:27N 34°26' W 119°55'0 0.0
2018-Aug-05 22:54N 34°26' W 119°55'0 0.0
2018-Aug-05 22:21N 34°26' W 119°55'0 0.0
2018-Aug-05 21:51N 34°26' W 119°55'0 0.0
2018-Aug-05 21:18N 34°26' W 119°55'0 0.0
2018-Aug-05 20:12N 34°26' W 119°55'0 0.0
2018-Aug-05 19:54N 34°26' W 119°55'0 0.0
2018-Aug-05 19:30N 34°26' W 119°55'0 0.0
2018-Aug-05 18:48N 34°26' W 119°55'0 0.0
2018-Aug-05 18:24N 34°26' W 119°55'0 0.0
2018-Aug-05 17:57N 34°26' W 119°55'0 0.0
2018-Aug-05 17:25N 34°26' W 119°55'0 0.0
2018-Aug-05 16:52N 34°26' W 119°55'0 0.0
2018-Aug-05 16:28N 34°26' W 119°55'0 0.0
2018-Aug-05 16:01N 34°26' W 119°55'0 0.0
2018-Aug-05 15:28N 34°26' W 119°55'0 0.0
2018-Aug-05 14:31N 34°26' W 119°55'0 0.0
2018-Aug-05 13:28N 34°26' W 119°55'2 4.4
2018-Aug-05 12:56N 34°23' W 119°54'2 4.9
2018-Aug-05 12:28N 34°26' W 119°55'0 0.0
2018-Aug-05 11:58N 34°26' W 119°55'0 0.0
2018-Aug-05 10:31N 34°26' W 119°55'0 0.0
2018-Aug-05 10:22N 34°26' W 119°55'0 0.0
2018-Aug-05 09:58N 34°26' W 119°55'0 0.0
2018-Aug-05 09:28N 34°26' W 119°55'0 0.0
2018-Aug-05 08:58N 34°26' W 119°55'0 0.0
2018-Aug-05 07:25N 34°26' W 119°55'0 0.0
2018-Aug-05 06:54N 34°26' W 119°55'0 0.0
2018-Aug-05 06:27N 34°26' W 119°55'0 0.0
2018-Aug-05 05:57N 34°26' W 119°55'0 0.0
2018-Aug-05 05:27N 34°26' W 119°55'0 0.0
2018-Aug-05 04:06N 34°26' W 119°55'0 0.0
2018-Aug-05 04:00N 34°26' W 119°55'0 0.0
2018-Aug-05 03:30N 34°26' W 119°55'0 0.0
2018-Aug-05 02:48N 34°26' W 119°55'0 0.0
2018-Aug-05 01:39N 34°26' W 119°55'0 0.0
2018-Aug-05 01:27N 34°26' W 119°55'0 0.0
2018-Aug-05 00:59N 34°26' W 119°55'2 4.5
2018-Aug-05 00:29N 34°23' W 119°54'0 0.1
2018-Aug-04 23:15N 34°23' W 119°55'0 0.0
2018-Aug-04 23:00N 34°23' W 119°55'0 0.2
2018-Aug-04 22:28N 34°24' W 119°55'2 4.4
2018-Aug-04 22:00N 34°26' W 119°55'0 0.0
2018-Aug-04 21:30N 34°26' W 119°55'0 0.0
2018-Aug-04 21:00N 34°26' W 119°55'0 0.0
2018-Aug-04 20:24N 34°26' W 119°55'0 0.0
2018-Aug-04 19:57N 34°26' W 119°55'0 0.0
2018-Aug-04 19:25N 34°26' W 119°55'0 0.0
2018-Aug-04 18:58N 34°26' W 119°55'0 0.0
2018-Aug-04 18:28N 34°26' W 119°55'0 0.0
2018-Aug-04 17:58N 34°26' W 119°55'0 0.0
2018-Aug-04 16:57N 34°26' W 119°55'0 0.0
2018-Aug-04 16:27N 34°26' W 119°55'0 0.0
2018-Aug-04 14:56N 34°26' W 119°55'0 0.0
2018-Aug-04 13:53N 34°26' W 119°55'  
Track history (hours):
 
Tides and Currents Weather Stations Pressure Air Temp Water Temp Dewpoint Dewpoint Depression Visibility Wind Speed Wind Dir Waves Ship Positions

Doug C.

Owner: C & C BOATS INC, HUNTINGTON BEACH, CA. More information available from US FCC via Universal Licensing System and Coast Guard Vessel Documentation Center.

Last reported at 2018-Aug-14 13:27 UTC. Time now 2018-Aug-14 13:44 UTC.
Position N 34°26' W 119°55'.

Length 22 m.

Type: Passenger vessel. MMSI: 367090830.

Date/timePositionNaut miles runAvg speedWind from/ knotsBaromVisibWave heightAir tempDewpointWater temp
2018-Aug-14 13:27N 34°26' W 119°55'1 3.2
2018-Aug-14 13:00N 34°24' W 119°56'1 0.9
2018-Aug-14 11:31N 34°26' W 119°55'0 0.0
2018-Aug-14 10:28N 34°26' W 119°55'0 0.0
2018-Aug-14 08:12N 34°26' W 119°55'0 0.0
2018-Aug-14 07:54N 34°26' W 119°55'0 0.0
2018-Aug-14 04:40N 34°26' W 119°55'0 0.0
2018-Aug-14 04:25N 34°26' W 119°55'0 0.0
2018-Aug-14 03:58N 34°26' W 119°55'0 0.0
2018-Aug-14 02:44N 34°26' W 119°55'0 0.0
2018-Aug-14 00:59N 34°26' W 119°55'2 4.7
2018-Aug-14 00:30N 34°23' W 119°54'1 2.2
2018-Aug-13 23:59N 34°24' W 119°55'1 1.5
2018-Aug-13 23:16N 34°23' W 119°55'0 0.0
2018-Aug-13 22:52N 34°23' W 119°55'0 0.0
2018-Aug-13 22:22N 34°23' W 119°55'0 0.0
2018-Aug-13 21:52N 34°23' W 119°55'0 0.0
2018-Aug-13 21:07N 34°23' W 119°55'0 0.7
2018-Aug-13 20:54N 34°23' W 119°54'2 5.1
2018-Aug-13 20:27N 34°26' W 119°55'0 0.0
2018-Aug-13 19:51N 34°26' W 119°55'0 0.0
2018-Aug-13 19:30N 34°26' W 119°55'0 0.0
2018-Aug-13 18:56N 34°26' W 119°55'0 0.6
2018-Aug-13 18:29N 34°26' W 119°55'3 5.3
2018-Aug-13 18:00N 34°23' W 119°54'3 3.9
2018-Aug-13 17:21N 34°26' W 119°55'0 0.3
2018-Aug-13 17:00N 34°26' W 119°55'0 0.2
2018-Aug-13 16:26N 34°26' W 119°55'0 0.1
2018-Aug-13 15:46N 34°26' W 119°55'1 1.6
2018-Aug-13 15:24N 34°25' W 119°56'1 1.6
2018-Aug-13 15:00N 34°26' W 119°55'0 0.3
2018-Aug-13 13:55N 34°26' W 119°55'0 0.8
2018-Aug-13 13:30N 34°26' W 119°55'0 0.7
2018-Aug-13 12:57N 34°25' W 119°55'0 0.4
2018-Aug-13 12:30N 34°26' W 119°55'0 0.0
2018-Aug-13 09:30N 34°26' W 119°55'0 0.0
2018-Aug-13 08:51N 34°26' W 119°55'0 0.0
2018-Aug-13 07:06N 34°26' W 119°55'0 0.0
2018-Aug-13 05:42N 34°26' W 119°55'0 0.0
2018-Aug-13 05:30N 34°26' W 119°55'0 0.0
2018-Aug-13 04:15N 34°26' W 119°55'0 0.0
2018-Aug-13 03:48N 34°26' W 119°55'0 0.0
2018-Aug-13 03:09N 34°26' W 119°55'0 0.0
2018-Aug-13 02:51N 34°26' W 119°55'0 0.0
2018-Aug-13 00:50N 34°26' W 119°55'1 3.8
2018-Aug-13 00:30N 34°24' W 119°55'1 1.7
2018-Aug-12 23:47N 34°26' W 119°55'0 0.0
2018-Aug-12 23:11N 34°26' W 119°55'0 0.2
2018-Aug-12 22:52N 34°26' W 119°55'0 0.0
2018-Aug-12 22:29N 34°26' W 119°55'2 3.3
2018-Aug-12 21:56N 34°24' W 119°55'2 4.1
2018-Aug-12 21:29N 34°26' W 119°55'0 0.0
2018-Aug-12 21:00N 34°26' W 119°55'0 0.0
2018-Aug-12 20:21N 34°26' W 119°55'0 0.0
2018-Aug-12 19:30N 34°26' W 119°55'0 0.0
2018-Aug-12 19:00N 34°26' W 119°55'0 0.0
2018-Aug-12 18:30N 34°26' W 119°55'0 0.0
2018-Aug-12 17:45N 34°26' W 119°55'0 0.0
2018-Aug-12 17:18N 34°26' W 119°55'0 0.0
2018-Aug-12 16:37N 34°26' W 119°55'0 0.0
2018-Aug-12 16:28N 34°26' W 119°55'0 0.0
2018-Aug-12 14:40N 34°26' W 119°55'0 0.0
2018-Aug-12 13:34N 34°26' W 119°55'0 0.0
2018-Aug-12 13:23N 34°26' W 119°55'2 5.7
2018-Aug-12 12:59N 34°23' W 119°54'2 1.3
2018-Aug-12 11:15N 34°26' W 119°55'0 0.0
2018-Aug-12 10:18N 34°26' W 119°55'0 0.0
2018-Aug-12 10:00N 34°26' W 119°55'0 0.0
2018-Aug-12 09:30N 34°26' W 119°55'0 0.0
2018-Aug-12 09:00N 34°26' W 119°55'0 0.0
2018-Aug-12 08:29N 34°26' W 119°55'0 0.0
2018-Aug-12 07:59N 34°26' W 119°55'0 0.0
2018-Aug-12 07:29N 34°26' W 119°55'0 0.0
2018-Aug-12 06:58N 34°26' W 119°55'0 0.0
2018-Aug-12 06:28N 34°26' W 119°55'0 0.0
2018-Aug-12 05:58N 34°26' W 119°55'0 0.0
2018-Aug-12 05:25N 34°26' W 119°55'0 0.0
2018-Aug-12 04:55N 34°26' W 119°55'0 0.0
2018-Aug-12 04:19N 34°26' W 119°55'0 0.0
2018-Aug-12 03:52N 34°26' W 119°55'0 0.0
2018-Aug-12 03:22N 34°26' W 119°55'0 0.0
2018-Aug-12 03:00N 34°26' W 119°55'0 0.0
2018-Aug-12 02:30N 34°26' W 119°55'0 0.0
2018-Aug-12 02:00N 34°26' W 119°55'0 0.0
2018-Aug-12 01:23N 34°26' W 119°55'2 4.2
2018-Aug-12 00:53N 34°24' W 119°55'2 5.8
2018-Aug-12 00:29N 34°26' W 119°55'2 3.4
2018-Aug-12 00:00N 34°24' W 119°56'1 2.1
2018-Aug-11 23:19N 34°26' W 119°55'0 0.0
2018-Aug-11 22:51N 34°26' W 119°55'0 0.0
2018-Aug-11 22:15N 34°26' W 119°55'0 0.0
2018-Aug-11 21:48N 34°26' W 119°55'0 1.1
2018-Aug-11 21:30N 34°25' W 119°56'2 2.3
2018-Aug-11 20:34N 34°23' W 119°55'0 0.0
2018-Aug-11 20:19N 34°23' W 119°55'0 1.1
2018-Aug-11 20:00N 34°24' W 119°55'2 1.7
2018-Aug-11 18:52N 34°26' W 119°55'0 0.0
2018-Aug-11 17:14N 34°26' W 119°55'0 0.0
2018-Aug-11 16:59N 34°26' W 119°55'0 0.0
2018-Aug-11 16:02N 34°26' W 119°55'0 0.1
2018-Aug-11 15:56N 34°26' W 119°55'0 0.0
2018-Aug-11 13:41N 34°26' W 119°55'0 0.0
2018-Aug-11 13:22N 34°26' W 119°55'2 5.3
2018-Aug-11 12:56N 34°23' W 119°54'2 1.7
2018-Aug-11 11:34N 34°26' W 119°55'0 0.0
2018-Aug-11 11:28N 34°26' W 119°55'0 0.0
2018-Aug-11 09:34N 34°26' W 119°55'0 0.0
2018-Aug-11 08:34N 34°26' W 119°55'0 0.0
2018-Aug-11 08:28N 34°26' W 119°55'0 0.0
2018-Aug-11 06:58N 34°26' W 119°55'0 0.0
2018-Aug-11 06:28N 34°26' W 119°55'0 0.0
2018-Aug-11 05:58N 34°26' W 119°55'0 0.0
2018-Aug-11 05:28N 34°26' W 119°55'0 0.0
2018-Aug-11 03:19N 34°26' W 119°55'0 0.0
2018-Aug-11 02:58N 34°26' W 119°55'0 0.0
2018-Aug-11 02:13N 34°26' W 119°55'0 0.0
2018-Aug-11 01:43N 34°26' W 119°55'1 2.0
2018-Aug-11 01:26N 34°25' W 119°56'1 1.7
2018-Aug-11 01:00N 34°26' W 119°55'0 0.2
2018-Aug-11 00:07N 34°26' W 119°55'0 1.7
2018-Aug-11 00:00N 34°26' W 119°55'0 0.2
2018-Aug-10 23:23N 34°26' W 119°55'0 0.0
2018-Aug-10 22:54N 34°26' W 119°55'2 4.3
2018-Aug-10 22:30N 34°24' W 119°55'2 2.7
2018-Aug-10 21:51N 34°26' W 119°55'0 0.0
2018-Aug-10 21:27N 34°26' W 119°55'2 3.4
2018-Aug-10 21:00N 34°24' W 119°55'2 2.5
2018-Aug-10 20:23N 34°26' W 119°55'0 0.0
2018-Aug-10 19:26N 34°26' W 119°55'0 0.0
2018-Aug-10 18:59N 34°26' W 119°55'0 0.0
2018-Aug-10 18:26N 34°26' W 119°55'0 0.0
2018-Aug-10 17:59N 34°26' W 119°55'0 0.3
2018-Aug-10 17:17N 34°26' W 119°55'1 3.2
2018-Aug-10 16:56N 34°25' W 119°56'1 1.6
2018-Aug-10 16:20N 34°26' W 119°55'0 0.0
2018-Aug-10 15:53N 34°26' W 119°55'0 0.4
2018-Aug-10 15:19N 34°26' W 119°55'3 7.7
2018-Aug-10 14:59N 34°23' W 119°54'2 2.9
2018-Aug-10 14:11N 34°26' W 119°55'0 0.6
2018-Aug-10 13:43N 34°26' W 119°55'1 5.0
2018-Aug-10 13:26N 34°24' W 119°56'1 3.0
2018-Aug-10 13:00N 34°26' W 119°55'0 0.1
2018-Aug-10 10:52N 34°26' W 119°55'0 0.0
2018-Aug-10 10:00N 34°26' W 119°55'0 0.0
2018-Aug-10 09:18N 34°26' W 119°55'0 0.0
2018-Aug-10 07:09N 34°26' W 119°55'0 0.0
2018-Aug-10 07:00N 34°26' W 119°55'0 0.0
2018-Aug-10 04:27N 34°26' W 119°55'1 3.1
2018-Aug-10 03:59N 34°24' W 119°55'1 2.5
2018-Aug-10 03:24N 34°26' W 119°55'0 0.0
2018-Aug-10 02:36N 34°26' W 119°55'0 0.0
2018-Aug-10 02:24N 34°26' W 119°55'0 0.0
2018-Aug-10 02:00N 34°26' W 119°55'0 0.0
2018-Aug-10 01:23N 34°26' W 119°55'2 4.6
2018-Aug-10 00:54N 34°23' W 119°54'2 5.1
2018-Aug-10 00:28N 34°26' W 119°55'0 0.0
2018-Aug-09 23:58N 34°26' W 119°55'2 4.3
2018-Aug-09 23:26N 34°23' W 119°54'2 2.6
2018-Aug-09 22:33N 34°26' W 119°55'0 0.0
2018-Aug-09 22:27N 34°26' W 119°55'0 0.0
2018-Aug-09 21:54N 34°26' W 119°55'2 5.7
2018-Aug-09 21:30N 34°23' W 119°54'3 3.8
2018-Aug-09 20:50N 34°26' W 119°55'0 0.0
2018-Aug-09 20:21N 34°26' W 119°55'0 0.6
2018-Aug-09 20:00N 34°26' W 119°55'2 4.5
2018-Aug-09 19:28N 34°23' W 119°54'0 0.1
2018-Aug-09 18:58N 34°23' W 119°54'2 3.2
2018-Aug-09 18:14N 34°26' W 119°55'0 0.0
2018-Aug-09 17:59N 34°26' W 119°55'0 0.0
2018-Aug-09 17:29N 34°26' W 119°55'0 0.4
2018-Aug-09 16:59N 34°26' W 119°55'2 3.2
2018-Aug-09 16:30N 34°24' W 119°56'1 1.8
2018-Aug-09 15:46N 34°23' W 119°55'0 0.1
2018-Aug-09 14:55N 34°23' W 119°55'2 6.2
2018-Aug-09 14:31N 34°26' W 119°55'0 0.2
2018-Aug-09 13:25N 34°26' W 119°55'2 5.6
2018-Aug-09 13:00N 34°23' W 119°54'2 4.2
2018-Aug-09 12:28N 34°26' W 119°55'0 0.0
2018-Aug-09 11:52N 34°26' W 119°55'0 0.0
2018-Aug-09 11:25N 34°26' W 119°55'0 0.0
2018-Aug-09 10:55N 34°26' W 119°55'0 0.0
2018-Aug-09 09:58N 34°26' W 119°55'0 0.0
2018-Aug-09 09:28N 34°26' W 119°55'0 0.0
2018-Aug-09 08:43N 34°26' W 119°55'0 0.0
2018-Aug-09 08:16N 34°26' W 119°55'0 0.0
2018-Aug-09 07:52N 34°26' W 119°55'0 0.0
2018-Aug-09 06:16N 34°26' W 119°55'0 0.0
2018-Aug-09 05:13N 34°26' W 119°55'0 0.0
2018-Aug-09 04:58N 34°26' W 119°55'0 0.0
2018-Aug-09 04:18N 34°26' W 119°55'0 0.0
2018-Aug-09 03:57N 34°26' W 119°55'0 0.0
2018-Aug-09 01:43N 34°26' W 119°55'0 0.0
2018-Aug-09 01:26N 34°26' W 119°55'2 4.0
2018-Aug-09 00:57N 34°24' W 119°55'2 1.6
2018-Aug-08 23:47N 34°26' W 119°55'0 0.0
2018-Aug-08 23:09N 34°26' W 119°55'0 0.0
2018-Aug-08 22:45N 34°26' W 119°55'0 0.0
2018-Aug-08 22:27N 34°26' W 119°55'0 0.6
2018-Aug-08 21:58N 34°26' W 119°55'0 0.4
2018-Aug-08 21:29N 34°26' W 119°55'3 5.0
2018-Aug-08 20:59N 34°23' W 119°54'0 0.0
2018-Aug-08 20:28N 34°23' W 119°54'1 2.6
2018-Aug-08 19:59N 34°24' W 119°56'1 2.9
2018-Aug-08 19:30N 34°26' W 119°55'0 0.0
2018-Aug-08 19:00N 34°26' W 119°55'0 0.0
2018-Aug-08 18:24N 34°26' W 119°55'0 0.0
2018-Aug-08 17:35N 34°26' W 119°55'0 0.0
2018-Aug-08 17:26N 34°26' W 119°55'0 0.0
2018-Aug-08 16:59N 34°26' W 119°55'2 3.6
2018-Aug-08 16:27N 34°24' W 119°55'2 3.2
2018-Aug-08 15:52N 34°26' W 119°55'0 0.0
2018-Aug-08 15:28N 34°26' W 119°55'0 0.0
2018-Aug-08 14:34N 34°26' W 119°55'0 0.0
2018-Aug-08 14:25N 34°26' W 119°55'0 0.0
2018-Aug-08 13:55N 34°26' W 119°55'0 0.6
2018-Aug-08 13:28N 34°26' W 119°55'1 2.6
2018-Aug-08 12:56N 34°24' W 119°56'1 2.5
2018-Aug-08 12:27N 34°26' W 119°55'0 0.0
2018-Aug-08 11:30N 34°26' W 119°55'0 0.0
2018-Aug-08 10:53N 34°26' W 119°55'0 0.0
2018-Aug-08 09:40N 34°26' W 119°55'0 0.0
2018-Aug-08 09:25N 34°26' W 119°55'0 0.0
2018-Aug-08 08:44N 34°26' W 119°55'0 0.0
2018-Aug-08 08:29N 34°26' W 119°55'0 0.0
2018-Aug-08 06:59N 34°26' W 119°55'0 0.0
2018-Aug-08 06:29N 34°26' W 119°55'0 0.0
2018-Aug-08 05:53N 34°26' W 119°55'0 0.0
2018-Aug-08 05:26N 34°26' W 119°55'0 0.0
2018-Aug-08 04:53N 34°26' W 119°55'0 0.0
2018-Aug-08 04:20N 34°26' W 119°55'0 0.0
2018-Aug-08 03:53N 34°26' W 119°55'0 0.0
2018-Aug-08 03:11N 34°26' W 119°55'0 0.0
2018-Aug-08 02:56N 34°26' W 119°55'0 0.0
2018-Aug-08 02:20N 34°26' W 119°55'0 0.0
2018-Aug-08 01:53N 34°26' W 119°55'0 0.7
2018-Aug-08 01:30N 34°26' W 119°55'1 1.7
2018-Aug-08 00:59N 34°25' W 119°56'1 0.7
2018-Aug-07 23:59N 34°26' W 119°55'0 0.0
2018-Aug-07 22:47N 34°26' W 119°55'2 6.7
2018-Aug-07 22:29N 34°24' W 119°55'2 2.7
2018-Aug-07 21:44N 34°26' W 119°55'0 0.0
2018-Aug-07 21:29N 34°26' W 119°55'0 0.7
2018-Aug-07 21:00N 34°25' W 119°56'2 2.9
2018-Aug-07 20:20N 34°23' W 119°55'0 0.0
2018-Aug-07 19:47N 34°23' W 119°55'0 0.0
2018-Aug-07 19:30N 34°23' W 119°55'0 0.0
2018-Aug-07 19:00N 34°23' W 119°55'0 0.0
2018-Aug-07 18:10N 34°23' W 119°55'0 0.0
2018-Aug-07 17:58N 34°23' W 119°55'0 0.0
2018-Aug-07 17:13N 34°23' W 119°55'0 0.0
2018-Aug-07 16:44N 34°23' W 119°55'0 0.0
2018-Aug-07 16:30N 34°23' W 119°55'0 0.0
2018-Aug-07 15:57N 34°23' W 119°55'0 0.0
2018-Aug-07 15:18N 34°23' W 119°55'0 0.0
2018-Aug-07 14:48N 34°23' W 119°55'0 0.0
2018-Aug-07 14:03N 34°23' W 119°55'0 0.0
2018-Aug-07 13:50N 34°23' W 119°55'2 6.2
2018-Aug-07 13:28N 34°26' W 119°55'0 0.1
2018-Aug-07 12:55N 34°26' W 119°55'0 0.2
2018-Aug-07 12:28N 34°26' W 119°55'0 0.2
2018-Aug-07 11:14N 34°26' W 119°55'0 0.0
2018-Aug-07 10:50N 34°26' W 119°55'0 0.0
2018-Aug-07 09:44N 34°26' W 119°55'0 0.0
2018-Aug-07 09:29N 34°26' W 119°55'0 0.0
2018-Aug-07 08:50N 34°26' W 119°55'0 0.0
2018-Aug-07 08:20N 34°26' W 119°55'0 0.0
2018-Aug-07 07:56N 34°26' W 119°55'0 0.0
2018-Aug-07 06:59N 34°26' W 119°55'0 0.0
2018-Aug-07 06:08N 34°26' W 119°55'0 0.0
2018-Aug-07 05:56N 34°26' W 119°55'0 0.0
2018-Aug-07 03:11N 34°26' W 119°55'0 0.0
2018-Aug-07 02:59N 34°26' W 119°55'0 0.0
2018-Aug-07 02:17N 34°26' W 119°55'0 0.0
2018-Aug-07 01:53N 34°26' W 119°55'0 0.1
2018-Aug-07 01:30N 34°26' W 119°55'2 3.9
2018-Aug-07 00:54N 34°23' W 119°54'3 5.2
2018-Aug-07 00:25N 34°26' W 119°55'0 0.4
2018-Aug-06 23:51N 34°26' W 119°55'0 0.0
2018-Aug-06 23:04N 34°26' W 119°55'0 0.0
2018-Aug-06 22:58N 34°26' W 119°55'0 0.0
2018-Aug-06 22:25N 34°26' W 119°55'1 2.0
2018-Aug-06 22:00N 34°25' W 119°56'1 1.6
2018-Aug-06 21:29N 34°26' W 119°55'2 4.6
2018-Aug-06 21:00N 34°23' W 119°54'0 0.4
2018-Aug-06 20:31N 34°23' W 119°55'0 0.0
2018-Aug-06 19:54N 34°23' W 119°55'0 0.4
2018-Aug-06 19:29N 34°23' W 119°54'3 5.0
2018-Aug-06 18:59N 34°26' W 119°55'0 0.0
2018-Aug-06 18:30N 34°26' W 119°55'3 4.2
2018-Aug-06 17:54N 34°23' W 119°54'0 0.0
2018-Aug-06 17:21N 34°23' W 119°54'0 0.1
2018-Aug-06 17:00N 34°23' W 119°54'3 5.1
2018-Aug-06 16:30N 34°26' W 119°55'0 0.4
2018-Aug-06 15:49N 34°26' W 119°55'0 0.0
2018-Aug-06 15:28N 34°26' W 119°55'0 0.0
2018-Aug-06 14:55N 34°26' W 119°55'0 0.0
2018-Aug-06 14:28N 34°26' W 119°55'0 0.0
2018-Aug-06 13:43N 34°26' W 119°55'0 0.0
2018-Aug-06 13:29N 34°26' W 119°55'2 3.3
2018-Aug-06 12:58N 34°24' W 119°55'2 3.3
2018-Aug-06 12:26N 34°26' W 119°55'0 0.0
2018-Aug-06 11:53N 34°26' W 119°55'0 0.0
2018-Aug-06 11:29N 34°26' W 119°55'0 0.0
2018-Aug-06 10:58N 34°26' W 119°55'0 0.0
2018-Aug-06 09:44N 34°26' W 119°55'0 0.0
2018-Aug-06 09:17N 34°26' W 119°55'0 0.0
2018-Aug-06 08:59N 34°26' W 119°55'0 0.0
2018-Aug-06 06:32N 34°26' W 119°55'0 0.0
2018-Aug-06 06:29N 34°26' W 119°55'0 0.0
2018-Aug-06 05:41N 34°26' W 119°55'0 0.0
2018-Aug-06 05:28N 34°26' W 119°55'0 0.0
2018-Aug-06 04:58N 34°26' W 119°55'0 0.0
2018-Aug-06 04:10N 34°26' W 119°55'0 0.0
2018-Aug-06 03:58N 34°26' W 119°55'0 0.0
2018-Aug-06 03:28N 34°26' W 119°55'0 0.0
2018-Aug-06 02:55N 34°26' W 119°55'0 0.0
2018-Aug-06 01:02N 34°26' W 119°55'0 0.0
2018-Aug-06 00:55N 34°26' W 119°55'2 5.1
2018-Aug-06 00:28N 34°23' W 119°54'2 3.0
2018-Aug-05 23:42N 34°26' W 119°55'0 0.0
2018-Aug-05 23:27N 34°26' W 119°55'0 0.0
2018-Aug-05 22:54N 34°26' W 119°55'0 0.0
2018-Aug-05 22:21N 34°26' W 119°55'0 0.0
2018-Aug-05 21:51N 34°26' W 119°55'0 0.0
2018-Aug-05 21:18N 34°26' W 119°55'0 0.0
2018-Aug-05 20:12N 34°26' W 119°55'0 0.0
2018-Aug-05 19:54N 34°26' W 119°55'0 0.0
2018-Aug-05 19:30N 34°26' W 119°55'0 0.0
2018-Aug-05 18:48N 34°26' W 119°55'0 0.0
2018-Aug-05 18:24N 34°26' W 119°55'0 0.0
2018-Aug-05 17:57N 34°26' W 119°55'0 0.0
2018-Aug-05 17:25N 34°26' W 119°55'0 0.0
2018-Aug-05 16:52N 34°26' W 119°55'0 0.0
2018-Aug-05 16:28N 34°26' W 119°55'0 0.0
2018-Aug-05 16:01N 34°26' W 119°55'0 0.0
2018-Aug-05 15:28N 34°26' W 119°55'0 0.0
2018-Aug-05 14:31N 34°26' W 119°55'0 0.0
2018-Aug-05 13:28N 34°26' W 119°55'2 4.4
2018-Aug-05 12:56N 34°23' W 119°54'2 4.9
2018-Aug-05 12:28N 34°26' W 119°55'0 0.0
2018-Aug-05 11:58N 34°26' W 119°55'0 0.0
2018-Aug-05 10:31N 34°26' W 119°55'0 0.0
2018-Aug-05 10:22N 34°26' W 119°55'0 0.0
2018-Aug-05 09:58N 34°26' W 119°55'0 0.0
2018-Aug-05 09:28N 34°26' W 119°55'0 0.0
2018-Aug-05 08:58N 34°26' W 119°55'0 0.0
2018-Aug-05 07:25N 34°26' W 119°55'0 0.0
2018-Aug-05 06:54N 34°26' W 119°55'0 0.0
2018-Aug-05 06:27N 34°26' W 119°55'0 0.0
2018-Aug-05 05:57N 34°26' W 119°55'0 0.0
2018-Aug-05 05:27N 34°26' W 119°55'0 0.0
2018-Aug-05 04:06N 34°26' W 119°55'0 0.0
2018-Aug-05 04:00N 34°26' W 119°55'0 0.0
2018-Aug-05 03:30N 34°26' W 119°55'0 0.0
2018-Aug-05 02:48N 34°26' W 119°55'0 0.0
2018-Aug-05 01:39N 34°26' W 119°55'0 0.0
2018-Aug-05 01:27N 34°26' W 119°55'0 0.0
2018-Aug-05 00:59N 34°26' W 119°55'2 4.5
2018-Aug-05 00:29N 34°23' W 119°54'0 0.1
2018-Aug-04 23:15N 34°23' W 119°55'0 0.0
2018-Aug-04 23:00N 34°23' W 119°55'0 0.2
2018-Aug-04 22:28N 34°24' W 119°55'2 4.4
2018-Aug-04 22:00N 34°26' W 119°55'0 0.0
2018-Aug-04 21:30N 34°26' W 119°55'0 0.0
2018-Aug-04 21:00N 34°26' W 119°55'0 0.0
2018-Aug-04 20:24N 34°26' W 119°55'0 0.0
2018-Aug-04 19:57N 34°26' W 119°55'0 0.0
2018-Aug-04 19:25N 34°26' W 119°55'0 0.0
2018-Aug-04 18:58N 34°26' W 119°55'0 0.0
2018-Aug-04 18:28N 34°26' W 119°55'0 0.0
2018-Aug-04 17:58N 34°26' W 119°55'0 0.0
2018-Aug-04 16:57N 34°26' W 119°55'0 0.0
2018-Aug-04 16:27N 34°26' W 119°55'0 0.0
2018-Aug-04 14:56N 34°26' W 119°55'0 0.0
2018-Aug-04 13:53N 34°26' W 119°55'  

Dump ship's entire track history